createdAt,value
2024-04-30T00:01:36.723Z,15.45
2024-04-30T00:04:04.443Z,15.37
2024-04-30T00:06:32.027Z,15.29
2024-04-30T00:08:59.395Z,15.23
2024-04-30T00:11:26.757Z,15.18
2024-04-30T00:13:54.495Z,15.15
2024-04-30T00:16:21.871Z,15.10
2024-04-30T00:18:49.215Z,15.08
2024-04-30T00:21:16.663Z,15.03
2024-04-30T00:23:44.012Z,15.00
2024-04-30T00:26:12.214Z,14.96
2024-04-30T00:28:39.642Z,14.93
2024-04-30T00:31:07.022Z,14.89
2024-04-30T00:33:34.593Z,14.86
2024-04-30T00:36:02.041Z,14.82
2024-04-30T00:38:30.316Z,14.79
2024-04-30T00:40:57.684Z,14.76
2024-04-30T00:43:25.183Z,14.74
2024-04-30T00:45:52.697Z,14.72
2024-04-30T00:48:20.093Z,14.69
2024-04-30T00:50:47.707Z,14.65
2024-04-30T00:53:16.574Z,14.62
2024-04-30T00:55:45.392Z,14.59
2024-04-30T00:58:13.305Z,14.58
2024-04-30T01:00:40.716Z,14.55
2024-04-30T01:03:08.100Z,14.53
2024-04-30T01:05:35.362Z,14.50
2024-04-30T01:08:02.771Z,14.48
2024-04-30T01:10:30.004Z,14.44
2024-04-30T01:12:57.940Z,14.40
2024-04-30T01:15:25.353Z,14.34
2024-04-30T01:17:53.169Z,14.28
2024-04-30T01:20:20.983Z,14.23
2024-04-30T01:22:48.345Z,14.18
2024-04-30T01:25:15.715Z,14.14
2024-04-30T01:27:43.150Z,14.12
2024-04-30T01:30:11.223Z,14.11
2024-04-30T01:32:38.584Z,14.10
2024-04-30T01:35:06.649Z,14.08
2024-04-30T01:37:34.123Z,14.08
2024-04-30T01:40:01.644Z,14.05
2024-04-30T01:42:29.122Z,14.02
2024-04-30T01:44:56.380Z,13.98
2024-04-30T01:47:23.753Z,13.95
2024-04-30T01:49:51.211Z,13.91
2024-04-30T01:52:18.611Z,13.89
2024-04-30T01:54:46.109Z,13.86
2024-04-30T01:57:13.464Z,13.81
2024-04-30T01:59:44.744Z,13.78
2024-04-30T02:02:12.214Z,13.75
2024-04-30T02:04:46.437Z,13.71
2024-04-30T02:07:17.176Z,13.68
2024-04-30T02:09:44.567Z,13.67
2024-04-30T02:12:11.933Z,13.65
2024-04-30T02:14:39.289Z,13.63
2024-04-30T02:17:06.672Z,13.61
2024-04-30T02:19:34.227Z,13.61
2024-04-30T02:22:01.562Z,13.60
2024-04-30T02:24:29.029Z,13.61
2024-04-30T02:26:56.479Z,13.61
2024-04-30T02:29:24.027Z,13.61
2024-04-30T02:32:10.335Z,13.61
2024-04-30T02:34:37.732Z,13.59
2024-04-30T02:37:05.217Z,13.57
2024-04-30T02:39:32.596Z,13.56
2024-04-30T02:42:00.093Z,13.54
2024-04-30T02:44:27.421Z,13.53
2024-04-30T02:46:54.785Z,13.52
2024-04-30T02:49:22.246Z,13.51
2024-04-30T02:51:49.592Z,13.48
2024-04-30T02:54:16.933Z,13.46
2024-04-30T02:56:44.405Z,13.45
2024-04-30T02:59:11.850Z,13.44
2024-04-30T03:01:39.171Z,13.42
2024-04-30T03:04:06.668Z,13.41
2024-04-30T03:06:38.037Z,13.40
2024-04-30T03:09:05.479Z,13.39
2024-04-30T03:11:32.944Z,13.39
2024-04-30T03:14:00.452Z,13.39
2024-04-30T03:16:27.961Z,13.40
2024-04-30T03:18:55.434Z,13.40
2024-04-30T03:21:22.796Z,13.40
2024-04-30T03:23:50.140Z,13.42
2024-04-30T03:26:17.374Z,13.42
2024-04-30T03:28:45.057Z,13.42
2024-04-30T03:31:12.515Z,13.43
2024-04-30T03:33:40.017Z,13.42
2024-04-30T03:36:07.597Z,13.41
2024-04-30T03:38:39.608Z,13.40
2024-04-30T03:41:14.835Z,13.41
2024-04-30T03:43:43.509Z,13.42
2024-04-30T03:46:14.301Z,13.44
2024-04-30T03:48:43.131Z,13.46
2024-04-30T03:51:10.466Z,13.49
2024-04-30T03:53:37.829Z,13.52
2024-04-30T03:56:05.490Z,13.55
2024-04-30T03:58:32.893Z,13.58
2024-04-30T04:01:00.548Z,13.61
2024-04-30T04:03:28.064Z,13.64
2024-04-30T04:05:55.421Z,13.69
2024-04-30T04:08:22.674Z,13.72
2024-04-30T04:11:10.002Z,13.76
2024-04-30T04:13:56.086Z,13.81
2024-04-30T04:16:23.503Z,13.86
2024-04-30T04:18:51.259Z,13.90
2024-04-30T04:21:20.603Z,13.93
2024-04-30T04:23:49.282Z,13.98
2024-04-30T04:26:16.641Z,14.04
2024-04-30T04:28:44.042Z,14.08
2024-04-30T04:31:11.754Z,14.12
2024-04-30T04:33:39.335Z,14.16
2024-04-30T04:36:13.431Z,14.20
2024-04-30T04:38:40.889Z,14.22
2024-04-30T04:41:08.360Z,14.25
2024-04-30T04:43:35.725Z,14.30
2024-04-30T04:46:03.251Z,14.37
2024-04-30T04:48:30.724Z,14.43
2024-04-30T04:50:58.484Z,14.47
2024-04-30T04:53:25.983Z,14.52
2024-04-30T04:55:53.336Z,14.57
2024-04-30T04:58:20.648Z,14.62
2024-04-30T05:00:50.352Z,14.68
2024-04-30T05:03:18.120Z,14.75
2024-04-30T05:05:45.688Z,14.82
2024-04-30T05:08:13.151Z,14.87
2024-04-30T05:10:40.884Z,14.89
2024-04-30T05:13:10.221Z,14.93
2024-04-30T05:15:37.571Z,15.01
2024-04-30T05:18:05.562Z,15.08
2024-04-30T05:20:32.992Z,15.15
2024-04-30T05:23:00.572Z,15.21
2024-04-30T05:25:28.058Z,15.26
2024-04-30T05:27:55.572Z,15.30
2024-04-30T05:30:22.920Z,15.37
2024-04-30T05:32:50.336Z,15.43
2024-04-30T05:35:17.741Z,15.53
2024-04-30T05:37:47.069Z,15.64
2024-04-30T05:40:14.744Z,15.72
2024-04-30T05:42:42.269Z,15.78
2024-04-30T05:45:12.206Z,15.82
2024-04-30T05:47:40.181Z,15.89
2024-04-30T05:50:07.710Z,15.99
2024-04-30T05:52:35.140Z,16.09
2024-04-30T05:55:02.708Z,16.15
2024-04-30T05:57:30.172Z,16.21
2024-04-30T05:59:57.527Z,16.25
2024-04-30T06:02:24.995Z,16.34
2024-04-30T06:04:52.614Z,16.43
2024-04-30T06:07:20.051Z,16.53
2024-04-30T06:09:47.464Z,16.60
2024-04-30T06:12:14.775Z,16.69
2024-04-30T06:14:42.283Z,16.76
2024-04-30T06:17:09.628Z,16.81
2024-04-30T06:19:37.026Z,16.84
2024-04-30T06:22:04.786Z,16.86
2024-04-30T06:24:32.323Z,16.85
2024-04-30T06:26:59.775Z,16.83
2024-04-30T06:29:27.324Z,16.81
2024-04-30T06:31:54.711Z,16.83
2024-04-30T06:34:22.190Z,16.87
2024-04-30T06:36:49.660Z,16.91
2024-04-30T06:39:18.656Z,16.95
2024-04-30T06:41:46.048Z,16.96
2024-04-30T06:44:13.503Z,17.00
2024-04-30T06:46:40.972Z,17.07
2024-04-30T06:49:09.897Z,17.11
2024-04-30T06:51:40.858Z,17.18
2024-04-30T06:54:08.612Z,17.25
2024-04-30T06:56:36.043Z,17.26
2024-04-30T06:59:03.458Z,17.24
2024-04-30T07:01:30.917Z,17.24
2024-04-30T07:03:58.373Z,17.24
2024-04-30T07:06:25.745Z,17.27
2024-04-30T07:08:52.996Z,17.31
2024-04-30T07:11:20.440Z,17.38
2024-04-30T07:13:47.791Z,17.43
2024-04-30T07:16:15.325Z,17.47
2024-04-30T07:18:43.489Z,17.50
2024-04-30T07:21:11.424Z,17.51
2024-04-30T07:23:38.782Z,17.54
2024-04-30T07:26:06.206Z,17.59
2024-04-30T07:28:33.946Z,17.65
2024-04-30T07:31:01.322Z,17.71
2024-04-30T07:33:28.862Z,17.77
2024-04-30T07:35:56.250Z,17.83
2024-04-30T07:38:25.745Z,17.85
2024-04-30T07:40:53.405Z,17.84
2024-04-30T07:43:20.911Z,17.83
2024-04-30T07:45:48.407Z,17.79
2024-04-30T07:48:15.827Z,17.77
2024-04-30T07:50:43.411Z,17.76
2024-04-30T07:53:10.882Z,17.73
2024-04-30T07:55:38.456Z,17.69
2024-04-30T07:58:05.994Z,17.68
2024-04-30T08:00:33.432Z,17.68
2024-04-30T08:03:01.232Z,17.72
2024-04-30T08:05:31.176Z,17.76
2024-04-30T08:08:00.812Z,17.80
2024-04-30T08:10:28.295Z,17.83
2024-04-30T08:12:55.864Z,17.87
2024-04-30T08:15:23.483Z,17.95
2024-04-30T08:17:50.972Z,18.06
2024-04-30T08:20:18.526Z,18.15
2024-04-30T08:22:46.038Z,18.21
2024-04-30T08:25:14.519Z,18.30
2024-04-30T08:27:42.121Z,18.39
2024-04-30T08:30:11.387Z,18.48
2024-04-30T08:32:39.674Z,18.58
2024-04-30T08:35:07.355Z,18.66
2024-04-30T08:37:40.059Z,18.73
2024-04-30T08:40:14.185Z,18.81
2024-04-30T08:42:42.597Z,18.88
2024-04-30T08:45:10.885Z,18.92
2024-04-30T08:47:38.356Z,18.95
2024-04-30T08:50:15.758Z,19.00
2024-04-30T08:52:44.440Z,19.04
2024-04-30T08:55:12.506Z,19.09
2024-04-30T08:57:39.831Z,19.17
2024-04-30T09:00:07.835Z,19.27
2024-04-30T09:02:40.972Z,19.38
2024-04-30T09:05:08.551Z,19.49
2024-04-30T09:07:35.969Z,19.58
2024-04-30T09:10:04.042Z,19.67
2024-04-30T09:12:31.872Z,19.76
2024-04-30T09:14:59.200Z,19.84
2024-04-30T09:17:27.773Z,19.89
2024-04-30T09:20:09.094Z,19.94
2024-04-30T09:22:52.908Z,19.96
2024-04-30T09:25:31.776Z,19.97
2024-04-30T09:27:59.808Z,19.95
2024-04-30T09:30:27.174Z,19.96
2024-04-30T09:32:54.801Z,19.99
2024-04-30T09:35:22.621Z,20.00
2024-04-30T09:38:05.094Z,20.03
2024-04-30T09:40:32.652Z,20.09
2024-04-30T09:43:00.230Z,20.15
2024-04-30T09:45:30.237Z,20.22
2024-04-30T09:47:57.865Z,20.26
2024-04-30T09:50:25.471Z,20.33
2024-04-30T09:52:53.569Z,20.43
2024-04-30T09:55:21.221Z,20.55
2024-04-30T09:57:49.405Z,20.67
2024-04-30T10:00:20.140Z,20.79
2024-04-30T10:02:52.975Z,20.92
2024-04-30T10:05:23.815Z,21.03
2024-04-30T10:07:51.419Z,21.10
2024-04-30T10:10:29.400Z,21.21
2024-04-30T10:13:22.262Z,21.35
2024-04-30T10:15:49.762Z,21.49
2024-04-30T10:18:26.650Z,21.61
2024-04-30T10:20:54.000Z,21.74
2024-04-30T10:23:31.295Z,21.85
2024-04-30T10:26:03.559Z,21.96
2024-04-30T10:28:31.233Z,22.02
2024-04-30T10:31:12.270Z,22.05
2024-04-30T10:33:39.918Z,22.09
2024-04-30T10:36:11.422Z,22.10
2024-04-30T10:38:42.679Z,22.11
2024-04-30T10:41:10.733Z,22.14
2024-04-30T10:43:38.341Z,22.26
2024-04-30T10:46:16.388Z,22.40
2024-04-30T10:48:50.669Z,22.55
2024-04-30T10:51:18.839Z,22.71
2024-04-30T10:53:46.755Z,22.85
2024-04-30T10:56:14.421Z,22.98
2024-04-30T10:58:58.934Z,23.07
2024-04-30T11:01:27.042Z,23.17
2024-04-30T11:04:11.112Z,23.29
2024-04-30T11:06:46.882Z,23.46
2024-04-30T11:09:15.788Z,23.65
2024-04-30T11:11:50.733Z,23.73
2024-04-30T11:14:19.662Z,23.79
2024-04-30T11:16:48.132Z,23.92
2024-04-30T11:19:16.055Z,24.08
2024-04-30T11:21:43.691Z,24.22
2024-04-30T11:24:11.345Z,24.35
2024-04-30T11:26:38.903Z,24.38
2024-04-30T11:29:22.605Z,24.43
2024-04-30T11:31:53.475Z,24.59
2024-04-30T11:34:21.059Z,24.73
2024-04-30T11:36:48.587Z,24.88
2024-04-30T11:39:16.259Z,25.01
2024-04-30T11:41:49.137Z,25.12
2024-04-30T11:44:25.204Z,25.26
2024-04-30T11:46:52.897Z,25.39
2024-04-30T11:49:20.472Z,25.51
2024-04-30T11:51:47.793Z,25.57
2024-04-30T11:54:15.180Z,25.60
2024-04-30T11:56:42.614Z,25.69
2024-04-30T11:59:10.099Z,25.76
2024-04-30T12:01:37.437Z,25.83
2024-04-30T12:04:05.029Z,25.91
2024-04-30T12:06:35.067Z,25.96
2024-04-30T12:09:04.134Z,26.01
2024-04-30T12:11:31.686Z,26.09
2024-04-30T12:13:59.070Z,26.21
2024-04-30T12:18:38.237Z,26.25
2024-04-30T12:21:05.553Z,26.29
2024-04-30T12:23:33.722Z,26.41
2024-04-30T12:26:01.026Z,26.54
2024-04-30T12:28:28.441Z,26.68
2024-04-30T12:30:55.987Z,26.81
2024-04-30T12:33:24.625Z,26.96
2024-04-30T12:35:52.337Z,27.15
2024-04-30T12:38:19.802Z,27.30
2024-04-30T12:40:48.309Z,27.37
2024-04-30T12:43:15.759Z,27.42
2024-04-30T12:45:43.415Z,27.49
2024-04-30T12:48:10.989Z,27.57
2024-04-30T12:50:38.413Z,27.62
2024-04-30T12:53:05.843Z,27.70
2024-04-30T12:55:35.233Z,27.76
2024-04-30T12:58:03.141Z,27.74
2024-04-30T13:00:30.662Z,27.70
2024-04-30T13:02:58.088Z,27.67
2024-04-30T13:05:25.908Z,27.63
2024-04-30T13:07:53.454Z,27.60
2024-04-30T13:10:20.875Z,27.48
2024-04-30T13:12:48.373Z,27.36
2024-04-30T13:15:15.731Z,27.25
2024-04-30T13:17:43.281Z,27.10
2024-04-30T13:20:10.856Z,26.92
2024-04-30T13:22:38.216Z,26.71
2024-04-30T13:25:06.702Z,26.50
2024-04-30T13:27:34.243Z,26.29
2024-04-30T13:30:01.641Z,26.09
2024-04-30T13:32:29.007Z,25.89
2024-04-30T13:34:56.390Z,25.69
2024-04-30T13:37:23.777Z,25.52
2024-04-30T13:39:51.429Z,25.36
2024-04-30T13:42:18.812Z,25.18
2024-04-30T13:44:46.135Z,25.03
2024-04-30T13:47:13.525Z,24.90
2024-04-30T13:49:41.213Z,24.78
2024-04-30T13:52:08.746Z,24.67
2024-04-30T13:54:36.284Z,24.58
2024-04-30T13:57:03.848Z,24.50
2024-04-30T13:59:31.290Z,24.42
2024-04-30T14:01:59.558Z,24.37
2024-04-30T14:04:27.060Z,24.35
2024-04-30T14:06:54.494Z,24.33
2024-04-30T14:09:22.044Z,24.31
2024-04-30T14:11:49.401Z,24.28
2024-04-30T14:14:16.699Z,24.23
2024-04-30T14:16:44.643Z,24.19
2024-04-30T14:19:12.210Z,24.25
2024-04-30T14:21:39.554Z,24.92
2024-04-30T14:24:07.301Z,26.28
2024-04-30T14:26:34.592Z,28.01
2024-04-30T14:29:02.113Z,29.99
2024-04-30T14:31:29.578Z,32.03
2024-04-30T14:33:57.131Z,33.99
2024-04-30T14:36:38.762Z,35.81
2024-04-30T14:39:08.817Z,37.62
2024-04-30T14:41:36.711Z,38.99
2024-04-30T14:44:04.261Z,40.08
2024-04-30T14:46:33.442Z,41.21
2024-04-30T14:49:01.291Z,42.36
2024-04-30T14:51:39.037Z,43.33
2024-04-30T14:54:06.689Z,44.19
2024-04-30T14:56:34.559Z,44.60
2024-04-30T14:59:02.280Z,44.81
2024-04-30T15:01:30.108Z,45.21
2024-04-30T15:03:57.657Z,45.77
2024-04-30T15:06:25.449Z,46.28
2024-04-30T15:08:52.892Z,46.55
2024-04-30T15:11:21.193Z,46.68
2024-04-30T15:13:49.143Z,46.87
2024-04-30T15:16:17.235Z,47.11
2024-04-30T15:18:45.773Z,47.30
2024-04-30T15:21:13.538Z,47.35
2024-04-30T15:23:41.822Z,47.40
2024-04-30T15:26:14.540Z,47.50
2024-04-30T15:28:42.785Z,47.72
2024-04-30T15:31:20.702Z,47.92
2024-04-30T15:33:48.688Z,47.98
2024-04-30T15:36:16.302Z,48.06
2024-04-30T15:38:45.914Z,48.17
2024-04-30T15:41:23.444Z,48.15
2024-04-30T15:43:51.415Z,48.00
2024-04-30T15:46:19.245Z,47.85
2024-04-30T15:48:50.076Z,47.74
2024-04-30T15:51:17.605Z,47.49
2024-04-30T15:53:44.799Z,47.24
2024-04-30T15:56:16.356Z,47.04
2024-04-30T15:58:45.733Z,46.83
2024-04-30T16:01:13.273Z,46.67
2024-04-30T16:03:40.686Z,46.44
2024-04-30T16:06:08.207Z,46.13
2024-04-30T16:08:38.447Z,45.73
2024-04-30T16:11:10.107Z,45.42
2024-04-30T16:13:39.652Z,45.16
2024-04-30T16:16:15.721Z,45.00
2024-04-30T16:18:47.353Z,44.85
2024-04-30T16:21:15.713Z,44.73
2024-04-30T16:23:43.698Z,44.50
2024-04-30T16:26:11.090Z,44.26
2024-04-30T16:28:42.287Z,44.05
2024-04-30T16:31:11.334Z,43.86
2024-04-30T16:33:39.073Z,43.71
2024-04-30T16:36:07.042Z,43.42
2024-04-30T16:38:34.474Z,43.03
2024-04-30T16:41:02.956Z,42.72
2024-04-30T16:43:30.345Z,42.30
2024-04-30T16:45:57.636Z,41.91
2024-04-30T16:48:26.005Z,41.51
2024-04-30T16:50:53.447Z,41.11
2024-04-30T16:53:20.889Z,40.70
2024-04-30T16:55:48.155Z,40.27
2024-04-30T16:58:15.598Z,39.91
2024-04-30T17:00:43.123Z,39.47
2024-04-30T17:03:11.481Z,38.86
2024-04-30T17:05:39.290Z,38.08
2024-04-30T17:08:07.056Z,37.28
2024-04-30T17:10:34.455Z,36.43
2024-04-30T17:13:02.105Z,35.54
2024-04-30T17:15:30.361Z,34.68
2024-04-30T17:17:58.302Z,33.81
2024-04-30T17:20:26.187Z,32.99
2024-04-30T17:22:53.553Z,32.21
2024-04-30T17:25:20.836Z,31.48
2024-04-30T17:27:48.276Z,30.84
2024-04-30T17:30:15.928Z,30.25
2024-04-30T17:32:43.718Z,29.65
2024-04-30T17:35:11.147Z,29.11
2024-04-30T17:37:38.395Z,28.59
2024-04-30T17:40:06.574Z,28.11
2024-04-30T17:42:34.613Z,27.65
2024-04-30T17:45:03.070Z,27.22
2024-04-30T17:47:30.532Z,26.83
2024-04-30T17:49:57.934Z,26.45
2024-04-30T17:52:25.174Z,26.08
2024-04-30T17:54:52.594Z,25.72
2024-04-30T17:57:20.707Z,25.33
2024-04-30T17:59:48.188Z,24.96
2024-04-30T18:02:15.539Z,24.63
2024-04-30T18:04:42.938Z,24.33
2024-04-30T18:07:10.438Z,24.06
2024-04-30T18:09:41.511Z,23.79
2024-04-30T18:12:09.596Z,23.52
2024-04-30T18:14:37.115Z,23.28
2024-04-30T18:17:05.249Z,23.04
2024-04-30T18:19:32.923Z,22.83
2024-04-30T18:22:00.483Z,22.64
2024-04-30T18:24:28.015Z,22.41
2024-04-30T18:26:55.382Z,22.28
2024-04-30T18:29:22.840Z,22.12
2024-04-30T18:31:53.406Z,21.97
2024-04-30T18:34:21.703Z,21.82
2024-04-30T18:36:49.293Z,21.70
2024-04-30T18:39:16.762Z,21.54
2024-04-30T18:41:45.370Z,21.40
2024-04-30T18:44:12.723Z,21.26
2024-04-30T18:46:40.434Z,21.13
2024-04-30T18:49:08.003Z,21.00
2024-04-30T18:51:41.378Z,20.87
2024-04-30T18:54:09.457Z,20.74
2024-04-30T18:56:40.348Z,20.61
2024-04-30T18:59:07.769Z,20.49
2024-04-30T19:01:35.798Z,20.39
2024-04-30T19:04:04.341Z,20.31
2024-04-30T19:06:32.023Z,20.23
2024-04-30T19:08:59.530Z,20.17
2024-04-30T19:11:27.013Z,20.08
2024-04-30T19:13:54.447Z,19.99
2024-04-30T19:16:21.818Z,19.92
2024-04-30T19:18:49.546Z,19.84
2024-04-30T19:21:18.441Z,19.78
2024-04-30T19:23:46.220Z,19.70
2024-04-30T19:26:14.932Z,19.63
2024-04-30T19:28:42.891Z,19.56
2024-04-30T19:31:20.060Z,19.50
2024-04-30T19:33:47.645Z,19.43
2024-04-30T19:36:17.011Z,19.38
2024-04-30T19:38:44.890Z,19.33
2024-04-30T19:41:12.224Z,19.27
2024-04-30T19:43:39.987Z,19.19
2024-04-30T19:46:11.991Z,19.14
2024-04-30T19:48:40.165Z,19.06
2024-04-30T19:51:07.681Z,18.99
2024-04-30T19:53:35.043Z,18.92
2024-04-30T19:56:02.403Z,18.86
2024-04-30T19:58:30.261Z,18.81
2024-04-30T20:00:57.656Z,18.76
2024-04-30T20:03:25.419Z,18.72
2024-04-30T20:05:52.708Z,18.68
2024-04-30T20:08:19.947Z,18.63
2024-04-30T20:10:47.349Z,18.58
2024-04-30T20:13:14.906Z,18.53
2024-04-30T20:15:42.182Z,18.47
2024-04-30T20:18:09.793Z,18.41
2024-04-30T20:20:37.383Z,18.36
2024-04-30T20:23:04.954Z,18.31
2024-04-30T20:25:32.308Z,18.27
2024-04-30T20:27:59.689Z,18.21
2024-04-30T20:30:27.412Z,18.15
2024-04-30T20:32:55.147Z,18.11
2024-04-30T20:35:22.696Z,18.06
2024-04-30T20:37:50.253Z,18.00
2024-04-30T20:40:17.575Z,17.94
2024-04-30T20:42:45.122Z,17.88
2024-04-30T20:45:12.892Z,17.83
2024-04-30T20:47:40.599Z,17.78
2024-04-30T20:50:08.230Z,17.73
2024-04-30T20:52:35.897Z,17.66
2024-04-30T20:55:03.415Z,17.60
2024-04-30T20:57:30.934Z,17.54
2024-04-30T20:59:58.371Z,17.47
2024-04-30T21:02:25.909Z,17.41
2024-04-30T21:04:53.391Z,17.37
2024-04-30T21:07:20.859Z,17.34
2024-04-30T21:09:48.293Z,17.30
2024-04-30T21:12:15.859Z,17.26
2024-04-30T21:14:43.217Z,17.21
2024-04-30T21:17:10.616Z,17.17
2024-04-30T21:19:38.539Z,17.13
2024-04-30T21:22:06.062Z,17.09
2024-04-30T21:24:35.028Z,17.06
2024-04-30T21:27:02.473Z,17.02
2024-04-30T21:29:29.887Z,16.99
2024-04-30T21:31:57.252Z,16.97
2024-04-30T21:34:24.752Z,16.94
2024-04-30T21:36:52.183Z,16.90
2024-04-30T21:39:19.513Z,16.87
2024-04-30T21:41:46.779Z,16.85
2024-04-30T21:44:14.021Z,16.83
2024-04-30T21:46:44.545Z,16.82
2024-04-30T21:49:13.126Z,16.81
2024-04-30T21:51:43.685Z,16.79
2024-04-30T21:54:12.804Z,16.75
2024-04-30T21:56:40.167Z,16.73
2024-04-30T21:59:07.521Z,16.71
2024-04-30T22:01:35.091Z,16.69
2024-04-30T22:04:02.742Z,16.67
2024-04-30T22:06:31.756Z,16.65
2024-04-30T22:08:59.741Z,16.62
2024-04-30T22:11:27.079Z,16.60
2024-04-30T22:13:54.515Z,16.57
2024-04-30T22:16:21.770Z,16.55
2024-04-30T22:18:49.207Z,16.54
2024-04-30T22:21:19.672Z,16.52
2024-04-30T22:23:48.553Z,16.49
2024-04-30T22:26:15.908Z,16.48
2024-04-30T22:28:43.566Z,16.46
2024-04-30T22:31:10.916Z,16.45
2024-04-30T22:33:38.472Z,16.42
2024-04-30T22:36:06.254Z,16.39
2024-04-30T22:38:33.910Z,16.36
2024-04-30T22:41:01.383Z,16.33
2024-04-30T22:43:28.938Z,16.31
2024-04-30T22:45:57.469Z,16.28
2024-04-30T22:48:25.076Z,16.24
2024-04-30T22:50:52.628Z,16.21
2024-04-30T22:53:19.981Z,16.18
2024-04-30T22:55:47.344Z,16.13
2024-04-30T22:58:14.690Z,16.08
2024-04-30T23:00:42.088Z,16.05
2024-04-30T23:03:09.612Z,16.03
2024-04-30T23:05:36.964Z,16.00
2024-04-30T23:08:05.034Z,15.96
2024-04-30T23:10:32.290Z,15.92
2024-04-30T23:13:00.040Z,15.88
2024-04-30T23:15:27.433Z,15.85
2024-04-30T23:17:54.902Z,15.82
2024-04-30T23:20:24.275Z,15.77
2024-04-30T23:22:51.839Z,15.73
2024-04-30T23:25:19.184Z,15.69
2024-04-30T23:27:47.229Z,15.66
2024-04-30T23:30:14.853Z,15.62
2024-04-30T23:32:42.218Z,15.59
2024-04-30T23:35:09.636Z,15.56
2024-04-30T23:37:37.101Z,15.53
2024-04-30T23:40:05.407Z,15.52
2024-04-30T23:42:32.709Z,15.49
2024-04-30T23:45:00.124Z,15.46
2024-04-30T23:47:27.541Z,15.43
2024-04-30T23:49:55.004Z,15.39
2024-04-30T23:52:22.347Z,15.36
2024-04-30T23:54:49.753Z,15.32
2024-04-30T23:57:17.367Z,15.29
2024-04-30T23:59:44.714Z,15.26
